createdAt,value
2023-03-02T00:02:17.691Z,80.01
2023-03-02T00:04:53.107Z,80.63
2023-03-02T00:07:25.735Z,80.00
2023-03-02T00:09:55.765Z,79.90
2023-03-02T00:12:27.596Z,80.10
2023-03-02T00:14:57.321Z,79.88
2023-03-02T00:17:29.290Z,80.01
2023-03-02T00:20:00.783Z,79.80
2023-03-02T00:22:30.022Z,79.40
2023-03-02T00:24:59.265Z,79.54
2023-03-02T00:27:30.308Z,80.57
2023-03-02T00:30:00.105Z,81.09
2023-03-02T00:32:29.680Z,81.50
2023-03-02T00:34:59.790Z,81.90
2023-03-02T00:37:29.209Z,82.46
2023-03-02T00:39:58.717Z,82.25
2023-03-02T00:42:28.119Z,81.94
2023-03-02T00:44:59.290Z,82.27
2023-03-02T00:47:30.330Z,82.74
2023-03-02T00:49:59.572Z,82.25
2023-03-02T00:52:31.257Z,82.77
2023-03-02T00:55:00.871Z,83.26
2023-03-02T00:57:30.609Z,83.27
2023-03-02T01:00:00.182Z,83.18
2023-03-02T01:02:31.298Z,83.50
2023-03-02T01:05:00.901Z,84.62
2023-03-02T01:07:30.199Z,84.18
2023-03-02T01:10:00.355Z,84.48
2023-03-02T01:12:29.595Z,84.16
2023-03-02T01:14:58.991Z,84.31
2023-03-02T01:17:28.809Z,84.49
2023-03-02T01:19:58.156Z,84.92
2023-03-02T01:22:27.945Z,85.22
2023-03-02T01:24:57.210Z,85.87
2023-03-02T01:27:26.460Z,86.26
2023-03-02T01:29:55.884Z,86.57
2023-03-02T01:32:25.326Z,87.03
2023-03-02T01:34:54.565Z,87.41
2023-03-02T01:37:24.061Z,87.90
2023-03-02T01:39:53.286Z,88.50
2023-03-02T01:42:22.883Z,89.13
2023-03-02T01:44:56.379Z,89.57
2023-03-02T01:47:37.234Z,90.02
2023-03-02T01:50:09.057Z,90.43
2023-03-02T01:52:38.811Z,91.05
2023-03-02T01:55:10.592Z,91.28
2023-03-02T01:57:43.917Z,92.22
2023-03-02T02:00:15.988Z,92.74
2023-03-02T02:02:45.647Z,93.36
2023-03-02T02:05:21.034Z,93.54
2023-03-02T02:07:50.550Z,93.58
2023-03-02T02:10:20.079Z,93.75
2023-03-02T02:12:49.334Z,94.46
2023-03-02T02:15:18.699Z,94.68
2023-03-02T02:17:48.049Z,94.75
2023-03-02T02:20:35.873Z,95.14
2023-03-02T02:23:08.796Z,94.83
2023-03-02T02:25:57.970Z,95.39
2023-03-02T02:28:30.472Z,95.46
2023-03-02T02:31:17.937Z,95.87
2023-03-02T02:33:51.890Z,95.78
2023-03-02T02:36:24.757Z,96.07
2023-03-02T02:38:56.800Z,96.27
2023-03-02T02:41:29.400Z,96.58
2023-03-02T02:43:58.901Z,96.82
2023-03-02T02:46:28.305Z,97.00
2023-03-02T02:48:58.258Z,97.09
2023-03-02T02:51:29.473Z,97.25
2023-03-02T02:54:03.424Z,97.23
2023-03-02T02:56:37.273Z,97.42
2023-03-02T02:59:22.026Z,97.35
2023-03-02T03:01:52.741Z,97.58
2023-03-02T03:04:25.275Z,97.73
2023-03-02T03:06:57.955Z,97.70
2023-03-02T03:09:28.703Z,97.94
2023-03-02T03:12:04.193Z,98.04
2023-03-02T03:14:36.054Z,98.07
2023-03-02T03:17:08.222Z,98.53
2023-03-02T03:19:38.259Z,98.61
2023-03-02T03:22:08.158Z,98.83
2023-03-02T03:24:37.555Z,98.82
2023-03-02T03:27:08.073Z,98.95
2023-03-02T03:29:39.088Z,98.96
2023-03-02T03:32:10.333Z,99.15
2023-03-02T03:34:41.800Z,99.15
2023-03-02T03:37:18.448Z,99.33
2023-03-02T03:39:48.139Z,99.55
2023-03-02T03:42:18.143Z,99.61
2023-03-02T03:44:48.215Z,99.66
2023-03-02T03:47:17.983Z,99.57
2023-03-02T03:49:47.727Z,99.53
2023-03-02T03:52:17.534Z,99.67
2023-03-02T03:54:46.818Z,99.87
2023-03-02T03:57:16.073Z,99.82
2023-03-02T03:59:45.339Z,99.90
2023-03-02T04:02:14.957Z,99.88
2023-03-02T04:04:45.936Z,99.87
2023-03-02T04:07:17.271Z,99.92
2023-03-02T04:09:48.034Z,100.00
2023-03-02T04:12:18.036Z,99.99
2023-03-02T04:14:51.968Z,100.00
2023-03-02T04:17:21.722Z,100.00
2023-03-02T04:19:51.510Z,100.00
2023-03-02T04:22:22.214Z,100.00
2023-03-02T04:24:51.783Z,99.98
2023-03-02T04:27:22.053Z,100.00
2023-03-02T04:29:53.096Z,100.00
2023-03-02T04:32:22.793Z,100.00
2023-03-02T04:34:53.864Z,100.00
2023-03-02T04:37:23.486Z,100.00
2023-03-02T04:39:53.669Z,100.00
2023-03-02T04:42:23.860Z,100.00
2023-03-02T04:44:53.138Z,100.00
2023-03-02T04:47:22.546Z,100.00
2023-03-02T04:49:53.629Z,100.00
2023-03-02T04:52:23.545Z,100.00
2023-03-02T04:54:53.458Z,100.00
2023-03-02T04:57:22.820Z,100.00
2023-03-02T04:59:52.074Z,100.00
2023-03-02T05:02:21.574Z,100.00
2023-03-02T05:04:50.994Z,100.00
2023-03-02T05:07:20.468Z,100.00
2023-03-02T05:09:49.876Z,100.00
2023-03-02T05:12:20.744Z,100.00
2023-03-02T05:14:50.082Z,100.00
2023-03-02T05:17:19.658Z,100.00
2023-03-02T05:19:48.921Z,100.00
2023-03-02T05:22:18.292Z,100.00
2023-03-02T05:24:47.613Z,100.00
2023-03-02T05:27:17.080Z,100.00
2023-03-02T05:29:46.355Z,100.00
2023-03-02T05:32:15.746Z,99.97
2023-03-02T05:34:45.225Z,100.00
2023-03-02T05:37:14.468Z,100.00
2023-03-02T05:39:44.053Z,100.00
2023-03-02T05:42:13.285Z,100.00
2023-03-02T05:44:42.566Z,100.00
2023-03-02T05:47:12.216Z,100.00
2023-03-02T05:49:41.472Z,100.00
2023-03-02T05:52:10.941Z,100.00
2023-03-02T05:54:41.094Z,100.00
2023-03-02T05:57:10.331Z,100.00
2023-03-02T05:59:39.827Z,100.00
2023-03-02T06:02:09.143Z,100.00
2023-03-02T06:04:40.026Z,100.00
2023-03-02T06:07:11.239Z,100.00
2023-03-02T06:09:41.404Z,100.00
2023-03-02T06:12:10.969Z,100.00
2023-03-02T06:14:40.256Z,100.00
2023-03-02T06:17:09.523Z,100.00
2023-03-02T06:19:38.782Z,100.00
2023-03-02T06:22:08.018Z,100.00
2023-03-02T06:24:37.331Z,100.00
2023-03-02T06:27:06.582Z,100.00
2023-03-02T06:29:35.914Z,100.00
2023-03-02T06:32:05.726Z,100.00
2023-03-02T06:34:35.562Z,100.00
2023-03-02T06:37:04.941Z,100.00
2023-03-02T06:39:35.139Z,100.00
2023-03-02T06:42:04.404Z,100.00
2023-03-02T06:44:34.034Z,100.00
2023-03-02T06:47:03.292Z,100.00
2023-03-02T06:49:33.247Z,100.00
2023-03-02T06:52:02.497Z,100.00
2023-03-02T06:54:31.874Z,100.00
2023-03-02T06:57:01.297Z,100.00
2023-03-02T06:59:30.942Z,100.00
2023-03-02T07:02:00.324Z,100.00
2023-03-02T07:04:29.656Z,100.00
2023-03-02T07:06:58.988Z,99.90
2023-03-02T07:09:29.954Z,99.57
2023-03-02T07:11:59.230Z,99.24
2023-03-02T07:14:28.751Z,99.15
2023-03-02T07:16:59.697Z,99.00
2023-03-02T07:19:29.379Z,98.37
2023-03-02T07:21:59.014Z,97.73
2023-03-02T07:24:28.374Z,94.74
2023-03-02T07:26:57.713Z,92.92
2023-03-02T07:29:26.920Z,90.97
2023-03-02T07:31:57.864Z,91.38
2023-03-02T07:34:28.129Z,91.33
2023-03-02T07:36:57.954Z,91.06
2023-03-02T07:39:27.364Z,91.71
2023-03-02T07:42:01.810Z,90.90
2023-03-02T07:44:31.899Z,88.73
2023-03-02T07:47:01.437Z,88.24
2023-03-02T07:49:30.741Z,87.77
2023-03-02T07:52:00.138Z,88.08
2023-03-02T07:54:30.531Z,88.08
2023-03-02T07:57:00.157Z,87.98
2023-03-02T07:59:29.643Z,88.10
2023-03-02T08:01:59.524Z,87.45
2023-03-02T08:04:28.841Z,87.55
2023-03-02T08:06:58.160Z,86.67
2023-03-02T08:09:27.382Z,85.67
2023-03-02T08:11:57.117Z,85.52
2023-03-02T08:14:26.619Z,85.86
2023-03-02T08:16:55.844Z,84.81
2023-03-02T08:19:26.444Z,85.42
2023-03-02T08:21:55.753Z,83.99
2023-03-02T08:24:25.340Z,83.91
2023-03-02T08:26:55.159Z,81.78
2023-03-02T08:29:24.669Z,80.76
2023-03-02T08:31:54.025Z,79.01
2023-03-02T08:34:23.382Z,78.24
2023-03-02T08:36:52.808Z,77.22
2023-03-02T08:39:24.821Z,76.34
2023-03-02T08:41:54.309Z,75.34
2023-03-02T08:44:23.904Z,73.98
2023-03-02T08:46:53.283Z,72.30
2023-03-02T08:49:23.388Z,68.52
2023-03-02T08:51:53.783Z,67.37
2023-03-02T08:54:24.272Z,64.25
2023-03-02T08:56:53.670Z,65.60
2023-03-02T08:59:23.201Z,63.72
2023-03-02T09:01:52.440Z,59.01
2023-03-02T09:04:22.052Z,60.27
2023-03-02T09:06:51.411Z,59.00
2023-03-02T09:09:20.784Z,59.13
2023-03-02T09:11:50.179Z,57.24
2023-03-02T09:14:19.719Z,58.76
2023-03-02T09:16:49.285Z,59.02
2023-03-02T09:19:18.657Z,56.58
2023-03-02T09:21:47.962Z,55.58
2023-03-02T09:24:17.584Z,55.22
2023-03-02T09:26:46.840Z,56.70
2023-03-02T09:29:16.087Z,55.17
2023-03-02T09:31:45.423Z,55.04
2023-03-02T09:34:14.884Z,54.72
2023-03-02T09:36:44.154Z,52.15
2023-03-02T09:39:13.680Z,50.83
2023-03-02T09:42:17.903Z,54.08
2023-03-02T09:45:01.651Z,53.81
2023-03-02T09:47:45.501Z,52.58
2023-03-02T09:50:21.143Z,51.82
2023-03-02T09:53:05.032Z,52.64
2023-03-02T09:55:36.149Z,51.64
2023-03-02T09:58:11.534Z,51.09
2023-03-02T10:00:43.915Z,50.37
2023-03-02T10:03:18.548Z,50.67
2023-03-02T10:05:54.206Z,50.57
2023-03-02T10:08:28.618Z,50.13
2023-03-02T10:11:25.842Z,51.26
2023-03-02T10:14:04.421Z,50.24
2023-03-02T10:16:52.205Z,49.88
2023-03-02T10:19:37.799Z,49.44
2023-03-02T10:22:22.250Z,49.89
2023-03-02T10:25:09.386Z,47.46
2023-03-02T10:27:41.260Z,46.25
2023-03-02T10:30:28.164Z,46.28
2023-03-02T10:33:00.720Z,46.31
2023-03-02T10:35:31.348Z,47.17
2023-03-02T10:38:19.856Z,48.57
2023-03-02T10:41:00.121Z,47.51
2023-03-02T10:43:37.111Z,48.54
2023-03-02T10:46:09.324Z,48.40
2023-03-02T10:49:00.709Z,46.30
2023-03-02T10:51:32.060Z,47.86
2023-03-02T10:54:17.037Z,47.07
2023-03-02T10:56:51.954Z,47.03
2023-03-02T10:59:46.071Z,45.36
2023-03-02T11:02:27.606Z,44.95
2023-03-02T11:05:03.104Z,45.80
2023-03-02T11:07:32.430Z,46.02
2023-03-02T11:10:10.982Z,43.78
2023-03-02T11:12:43.685Z,46.36
2023-03-02T11:15:16.186Z,46.63
2023-03-02T11:17:44.745Z,45.98
2023-03-02T11:20:25.956Z,43.76
2023-03-02T11:23:12.926Z,43.29
2023-03-02T11:25:45.472Z,42.69
2023-03-02T11:28:17.701Z,43.20
2023-03-02T11:30:48.732Z,44.21
2023-03-02T11:33:21.278Z,44.37
2023-03-02T11:35:59.563Z,41.83
2023-03-02T11:38:32.048Z,40.70
2023-03-02T11:41:01.426Z,41.85
2023-03-02T11:43:31.253Z,40.25
2023-03-02T11:46:10.788Z,40.24
2023-03-02T11:48:48.943Z,39.54
2023-03-02T11:51:24.252Z,40.74
2023-03-02T11:53:59.518Z,39.83
2023-03-02T11:56:31.934Z,40.82
2023-03-02T11:59:05.857Z,41.14
2023-03-02T12:01:38.581Z,39.81
2023-03-02T12:04:10.477Z,41.17
2023-03-02T12:06:43.531Z,40.19
2023-03-02T12:09:25.100Z,38.22
2023-03-02T12:12:05.458Z,39.24
2023-03-02T12:14:40.740Z,39.26
2023-03-02T12:17:30.050Z,38.81
2023-03-02T12:20:11.955Z,39.45
2023-03-02T12:22:42.277Z,37.94
2023-03-02T12:25:23.956Z,38.39
2023-03-02T12:27:55.018Z,38.63
2023-03-02T12:30:27.399Z,39.68
2023-03-02T12:33:14.176Z,37.98
2023-03-02T12:35:43.723Z,37.84
2023-03-02T12:38:25.205Z,37.42
2023-03-02T12:41:10.108Z,37.38
2023-03-02T12:43:55.311Z,36.29
2023-03-02T12:46:27.836Z,36.10
2023-03-02T12:49:12.677Z,37.21
2023-03-02T12:51:51.620Z,36.94
2023-03-02T12:54:23.851Z,37.15
2023-03-02T12:57:12.750Z,36.19
2023-03-02T12:59:42.569Z,35.19
2023-03-02T13:02:23.736Z,34.13
2023-03-02T13:05:01.261Z,36.28
2023-03-02T13:07:39.151Z,37.36
2023-03-02T13:10:11.666Z,35.74
2023-03-02T13:12:41.946Z,35.86
2023-03-02T13:15:19.092Z,36.44
2023-03-02T13:17:57.390Z,38.32
2023-03-02T13:20:29.683Z,38.45
2023-03-02T13:22:58.970Z,39.09
2023-03-02T13:25:31.047Z,40.97
2023-03-02T13:28:03.653Z,38.25
2023-03-02T13:30:34.512Z,38.81
2023-03-02T13:33:09.777Z,38.92
2023-03-02T13:35:39.293Z,39.82
2023-03-02T13:38:17.426Z,39.83
2023-03-02T13:40:49.325Z,40.06
2023-03-02T13:43:33.789Z,40.54
2023-03-02T13:46:06.712Z,41.10
2023-03-02T13:48:35.974Z,41.65
2023-03-02T13:51:16.840Z,43.22
2023-03-02T13:53:57.267Z,42.43
2023-03-02T13:56:29.561Z,43.18
2023-03-02T13:58:58.836Z,42.20
2023-03-02T14:01:28.945Z,42.87
2023-03-02T14:03:59.983Z,42.19
2023-03-02T14:06:29.260Z,42.77
2023-03-02T14:08:58.793Z,43.24
2023-03-02T14:11:30.620Z,42.71
2023-03-02T14:14:02.032Z,43.21
2023-03-02T14:16:31.722Z,43.53
2023-03-02T14:19:01.251Z,44.78
2023-03-02T14:21:30.758Z,43.92
2023-03-02T14:24:00.278Z,43.28
2023-03-02T14:26:37.920Z,42.98
2023-03-02T14:29:19.505Z,43.56
2023-03-02T14:31:49.037Z,44.77
2023-03-02T14:34:19.210Z,43.97
2023-03-02T14:36:51.590Z,43.79
2023-03-02T14:39:29.879Z,44.70
2023-03-02T14:41:59.572Z,43.86
2023-03-02T14:44:29.640Z,44.38
2023-03-02T14:46:59.032Z,43.94
2023-03-02T14:49:28.647Z,44.47
2023-03-02T14:52:16.070Z,44.36
2023-03-02T14:54:54.096Z,45.10
2023-03-02T14:57:28.340Z,44.66
2023-03-02T15:00:00.135Z,45.25
2023-03-02T15:02:29.979Z,44.86
2023-03-02T15:04:59.287Z,45.88
2023-03-02T15:07:29.370Z,47.13
2023-03-02T15:09:59.278Z,46.57
2023-03-02T15:12:28.516Z,46.23
2023-03-02T15:14:58.088Z,48.21
2023-03-02T15:17:27.345Z,47.51
2023-03-02T15:19:56.809Z,47.80
2023-03-02T15:22:26.230Z,47.91
2023-03-02T15:24:55.814Z,48.56
2023-03-02T15:27:25.291Z,47.80
2023-03-02T15:29:56.692Z,48.45
2023-03-02T15:32:26.722Z,48.96
2023-03-02T15:34:56.080Z,49.24
2023-03-02T15:37:25.912Z,49.61
2023-03-02T15:39:56.483Z,50.25
2023-03-02T15:42:26.057Z,51.73
2023-03-02T15:44:55.391Z,51.24
2023-03-02T15:47:24.994Z,52.52
2023-03-02T15:49:54.182Z,52.76
2023-03-02T15:52:23.481Z,52.91
2023-03-02T15:54:52.801Z,52.79
2023-03-02T15:57:22.401Z,52.53
2023-03-02T15:59:51.841Z,53.08
2023-03-02T16:02:21.088Z,53.66
2023-03-02T16:04:50.606Z,54.80
2023-03-02T16:07:20.113Z,55.95
2023-03-02T16:09:49.315Z,58.87
2023-03-02T16:12:21.004Z,59.48
2023-03-02T16:14:50.326Z,60.45
2023-03-02T16:17:19.696Z,61.52
2023-03-02T16:19:49.448Z,62.21
2023-03-02T16:22:20.466Z,62.97
2023-03-02T16:24:50.522Z,63.56
2023-03-02T16:27:19.823Z,63.97
2023-03-02T16:29:49.193Z,64.22
2023-03-02T16:32:18.613Z,64.75
2023-03-02T16:34:48.186Z,65.62
2023-03-02T16:37:17.440Z,65.50
2023-03-02T16:39:47.325Z,65.84
2023-03-02T16:42:18.445Z,66.16
2023-03-02T16:44:48.914Z,66.68
2023-03-02T16:47:18.153Z,66.87
2023-03-02T16:49:47.429Z,67.16
2023-03-02T16:52:17.672Z,67.79
2023-03-02T16:54:47.849Z,67.64
2023-03-02T16:57:17.386Z,68.43
2023-03-02T16:59:46.745Z,76.06
2023-03-02T17:02:16.054Z,78.15
2023-03-02T17:04:45.771Z,78.91
2023-03-02T17:07:14.967Z,79.71
2023-03-02T17:09:44.668Z,80.24
2023-03-02T17:12:13.920Z,81.63
2023-03-02T17:14:43.249Z,82.08
2023-03-02T17:17:12.523Z,82.89
2023-03-02T17:19:41.856Z,83.94
2023-03-02T17:22:11.079Z,84.76
2023-03-02T17:24:41.424Z,85.50
2023-03-02T17:27:24.159Z,85.84
2023-03-02T17:29:43.315Z,85.89
2023-03-02T17:32:12.700Z,85.85
2023-03-02T17:34:43.440Z,86.58
2023-03-02T17:37:12.735Z,86.35
2023-03-02T17:39:42.375Z,86.43
2023-03-02T17:42:11.835Z,86.53
2023-03-02T17:44:43.658Z,86.49
2023-03-02T17:47:14.882Z,87.12
2023-03-02T17:49:45.490Z,87.07
2023-03-02T17:52:16.157Z,87.72
2023-03-02T17:54:45.998Z,88.33
2023-03-02T17:57:16.555Z,89.10
2023-03-02T17:59:46.236Z,89.84
2023-03-02T18:02:15.539Z,90.19
2023-03-02T18:04:45.609Z,90.68
2023-03-02T18:07:15.935Z,90.90
2023-03-02T18:09:45.599Z,91.30
2023-03-02T18:12:14.825Z,91.62
2023-03-02T18:14:44.170Z,91.66
2023-03-02T18:17:15.029Z,91.71
2023-03-02T18:19:45.536Z,91.83
2023-03-02T18:22:15.502Z,92.32
2023-03-02T18:24:44.684Z,92.56
2023-03-02T18:27:14.201Z,92.66
2023-03-02T18:29:43.527Z,92.64
2023-03-02T18:32:13.121Z,92.55
2023-03-02T18:34:42.622Z,92.50
2023-03-02T18:37:12.318Z,92.29
2023-03-02T18:39:41.825Z,92.04
2023-03-02T18:42:12.731Z,91.68
2023-03-02T18:44:42.258Z,91.09
2023-03-02T18:47:15.034Z,90.90
2023-03-02T18:49:45.314Z,90.41
2023-03-02T18:52:16.482Z,90.27
2023-03-02T18:54:47.766Z,89.78
2023-03-02T18:57:17.320Z,90.02
2023-03-02T18:59:47.056Z,89.37
2023-03-02T19:02:16.525Z,89.29
2023-03-02T19:04:46.181Z,89.04
2023-03-02T19:07:15.574Z,88.30
2023-03-02T19:09:44.988Z,88.33
2023-03-02T19:12:14.240Z,88.09
2023-03-02T19:14:44.127Z,87.57
2023-03-02T19:17:13.806Z,87.02
2023-03-02T19:19:43.949Z,86.49
2023-03-02T19:22:15.111Z,86.04
2023-03-02T19:24:46.119Z,85.80
2023-03-02T19:27:16.327Z,85.93
2023-03-02T19:29:45.595Z,85.49
2023-03-02T19:32:15.133Z,85.70
2023-03-02T19:34:44.800Z,85.91
2023-03-02T19:37:14.341Z,86.15
2023-03-02T19:39:44.170Z,86.19
2023-03-02T19:42:14.106Z,86.50
2023-03-02T19:44:43.803Z,86.74
2023-03-02T19:47:13.283Z,86.90
2023-03-02T19:49:42.779Z,87.08
2023-03-02T19:52:12.332Z,86.95
2023-03-02T19:54:43.677Z,87.07
2023-03-02T19:57:13.803Z,87.02
2023-03-02T19:59:43.328Z,86.98
2023-03-02T20:02:15.053Z,87.14
2023-03-02T20:04:45.218Z,87.34
2023-03-02T20:07:15.365Z,87.86
2023-03-02T20:09:44.616Z,87.76
2023-03-02T20:12:16.085Z,87.93
2023-03-02T20:14:46.992Z,88.09
2023-03-02T20:17:17.329Z,88.09
2023-03-02T20:19:47.167Z,88.40
2023-03-02T20:22:17.397Z,87.71
2023-03-02T20:24:46.801Z,88.08
2023-03-02T20:27:16.239Z,87.71
2023-03-02T20:29:45.535Z,87.63
2023-03-02T20:32:15.569Z,87.70
2023-03-02T20:34:45.211Z,88.38
2023-03-02T20:37:16.440Z,88.06
2023-03-02T20:39:48.094Z,88.45
2023-03-02T20:42:17.710Z,88.33
2023-03-02T20:44:47.481Z,88.62
2023-03-02T20:47:17.894Z,88.61
2023-03-02T20:49:47.329Z,88.64
2023-03-02T20:52:16.678Z,88.89
2023-03-02T20:54:46.022Z,89.38
2023-03-02T20:57:20.631Z,89.94
2023-03-02T20:59:50.269Z,90.41
2023-03-02T21:02:21.160Z,90.19
2023-03-02T21:04:50.827Z,90.92
2023-03-02T21:07:20.212Z,91.02
2023-03-02T21:09:49.534Z,91.08
2023-03-02T21:12:18.989Z,91.88
2023-03-02T21:14:48.357Z,92.20
2023-03-02T21:17:17.740Z,92.39
2023-03-02T21:19:47.116Z,92.87
2023-03-02T21:22:16.412Z,93.15
2023-03-02T21:24:45.965Z,93.57
2023-03-02T21:27:15.921Z,93.85
2023-03-02T21:29:45.342Z,94.04
2023-03-02T21:32:14.932Z,94.26
2023-03-02T21:34:44.871Z,94.99
2023-03-02T21:37:14.117Z,95.30
2023-03-02T21:39:43.768Z,95.45
2023-03-02T21:42:13.063Z,95.78
2023-03-02T21:44:42.846Z,95.88
2023-03-02T21:47:12.130Z,95.58
2023-03-02T21:49:41.413Z,96.10
2023-03-02T21:52:10.720Z,96.34
2023-03-02T21:54:47.347Z,96.52
2023-03-02T21:57:21.445Z,96.97
2023-03-02T21:59:52.609Z,97.33
2023-03-02T22:02:25.290Z,97.39
2023-03-02T22:04:55.912Z,97.69
2023-03-02T22:07:27.265Z,97.82
2023-03-02T22:09:56.756Z,98.04
2023-03-02T22:12:32.326Z,98.39
2023-03-02T22:15:07.279Z,98.94
2023-03-02T22:17:38.032Z,99.14
2023-03-02T22:20:17.838Z,99.11
2023-03-02T22:22:50.696Z,99.30
2023-03-02T22:25:21.896Z,99.18
2023-03-02T22:27:51.836Z,99.36
2023-03-02T22:30:23.964Z,99.73
2023-03-02T22:32:57.942Z,99.44
2023-03-02T22:35:29.616Z,99.71
2023-03-02T22:38:07.879Z,99.89
2023-03-02T22:43:34.956Z,100.00
2023-03-02T22:46:18.326Z,100.00
2023-03-02T22:48:50.937Z,100.00
2023-03-02T22:51:25.691Z,100.00
2023-03-02T22:53:57.113Z,100.00
2023-03-02T22:56:40.322Z,100.00
2023-03-02T22:59:22.826Z,100.00
2023-03-02T23:01:53.260Z,100.00
2023-03-02T23:04:32.633Z,100.00
2023-03-02T23:07:03.592Z,100.00
2023-03-02T23:09:34.923Z,100.00
2023-03-02T23:12:15.912Z,100.00
2023-03-02T23:14:53.404Z,100.00
2023-03-02T23:17:35.266Z,100.00
2023-03-02T23:20:07.482Z,100.00
2023-03-02T23:22:39.281Z,100.00
2023-03-02T23:25:09.167Z,100.00
2023-03-02T23:27:38.739Z,100.00
2023-03-02T23:30:08.843Z,100.00
2023-03-02T23:32:38.135Z,100.00
2023-03-02T23:35:07.944Z,100.00
2023-03-02T23:37:37.271Z,100.00
2023-03-02T23:40:07.714Z,100.00
2023-03-02T23:42:37.244Z,100.00
2023-03-02T23:45:08.346Z,100.00
2023-03-02T23:47:38.434Z,100.00
2023-03-02T23:50:09.297Z,100.00
2023-03-02T23:52:39.595Z,100.00
2023-03-02T23:55:10.292Z,100.00
2023-03-02T23:57:39.576Z,100.00
